sensor_id;sensor_type;location;lat;lon;timestamp;P1;durP1;ratioP1;P2;durP2;ratioP2
57225;SDS011;43082;43.568;22.256;2022-08-23T00:00:45;7.50;;;4.32;;
57225;SDS011;43082;43.568;22.256;2022-08-23T00:03:11;10.77;;;4.22;;
57225;SDS011;43082;43.568;22.256;2022-08-23T00:05:36;8.35;;;4.30;;
57225;SDS011;43082;43.568;22.256;2022-08-23T00:08:02;7.35;;;4.22;;
57225;SDS011;43082;43.568;22.256;2022-08-23T00:10:28;7.32;;;4.30;;
57225;SDS011;43082;43.568;22.256;2022-08-23T00:12:53;8.02;;;4.38;;
57225;SDS011;43082;43.568;22.256;2022-08-23T00:15:19;9.20;;;4.45;;
57225;SDS011;43082;43.568;22.256;2022-08-23T00:17:45;6.45;;;4.00;;
57225;SDS011;43082;43.568;22.256;2022-08-23T00:20:12;8.05;;;4.32;;
57225;SDS011;43082;43.568;22.256;2022-08-23T00:22:39;12.65;;;4.25;;
57225;SDS011;43082;43.568;22.256;2022-08-23T00:25:06;8.82;;;4.20;;
57225;SDS011;43082;43.568;22.256;2022-08-23T00:27:33;9.10;;;4.80;;
57225;SDS011;43082;43.568;22.256;2022-08-23T00:29:58;10.30;;;4.50;;
57225;SDS011;43082;43.568;22.256;2022-08-23T00:32:29;7.35;;;4.03;;
57225;SDS011;43082;43.568;22.256;2022-08-23T00:34:56;8.10;;;4.38;;
57225;SDS011;43082;43.568;22.256;2022-08-23T00:37:22;10.27;;;4.40;;
57225;SDS011;43082;43.568;22.256;2022-08-23T00:39:49;9.43;;;4.43;;
57225;SDS011;43082;43.568;22.256;2022-08-23T00:43:01;8.63;;;4.60;;
57225;SDS011;43082;43.568;22.256;2022-08-23T00:45:30;11.52;;;4.13;;
57225;SDS011;43082;43.568;22.256;2022-08-23T00:48:18;9.00;;;3.75;;
57225;SDS011;43082;43.568;22.256;2022-08-23T00:53:24;10.77;;;3.88;;
57225;SDS011;43082;43.568;22.256;2022-08-23T00:55:53;7.13;;;3.53;;
57225;SDS011;43082;43.568;22.256;2022-08-23T00:58:21;11.40;;;4.05;;
57225;SDS011;43082;43.568;22.256;2022-08-23T01:00:48;12.18;;;4.68;;
57225;SDS011;43082;43.568;22.256;2022-08-23T01:03:14;10.50;;;3.75;;
57225;SDS011;43082;43.568;22.256;2022-08-23T01:05:53;8.45;;;3.83;;
57225;SDS011;43082;43.568;22.256;2022-08-23T01:08:23;11.35;;;3.60;;
57225;SDS011;43082;43.568;22.256;2022-08-23T01:10:54;12.35;;;4.10;;
57225;SDS011;43082;43.568;22.256;2022-08-23T01:13:24;7.72;;;3.47;;
57225;SDS011;43082;43.568;22.256;2022-08-23T01:15:57;11.10;;;3.90;;
57225;SDS011;43082;43.568;22.256;2022-08-23T01:18:26;11.32;;;3.90;;
57225;SDS011;43082;43.568;22.256;2022-08-23T01:21:02;12.07;;;4.57;;
57225;SDS011;43082;43.568;22.256;2022-08-23T01:23:44;12.85;;;3.85;;
57225;SDS011;43082;43.568;22.256;2022-08-23T01:26:12;9.23;;;4.10;;
57225;SDS011;43082;43.568;22.256;2022-08-23T01:28:39;7.38;;;3.95;;
57225;SDS011;43082;43.568;22.256;2022-08-23T01:31:06;7.82;;;4.32;;
57225;SDS011;43082;43.568;22.256;2022-08-23T01:33:33;7.78;;;4.55;;
57225;SDS011;43082;43.568;22.256;2022-08-23T01:36:00;7.07;;;3.72;;
57225;SDS011;43082;43.568;22.256;2022-08-23T01:38:27;7.35;;;3.85;;
57225;SDS011;43082;43.568;22.256;2022-08-23T01:40:52;8.77;;;4.60;;
57225;SDS011;43082;43.568;22.256;2022-08-23T01:43:18;8.93;;;4.00;;
57225;SDS011;43082;43.568;22.256;2022-08-23T01:45:46;10.98;;;4.13;;
57225;SDS011;43082;43.568;22.256;2022-08-23T01:48:13;8.15;;;4.80;;
57225;SDS011;43082;43.568;22.256;2022-08-23T01:50:39;12.60;;;4.82;;
57225;SDS011;43082;43.568;22.256;2022-08-23T01:53:05;9.70;;;4.72;;
57225;SDS011;43082;43.568;22.256;2022-08-23T01:55:31;13.48;;;4.78;;
57225;SDS011;43082;43.568;22.256;2022-08-23T01:57:57;11.57;;;4.85;;
57225;SDS011;43082;43.568;22.256;2022-08-23T02:00:26;11.57;;;5.05;;
57225;SDS011;43082;43.568;22.256;2022-08-23T02:02:57;11.10;;;4.28;;
57225;SDS011;43082;43.568;22.256;2022-08-23T02:05:23;8.48;;;3.97;;
57225;SDS011;43082;43.568;22.256;2022-08-23T02:07:49;8.48;;;3.67;;
57225;SDS011;43082;43.568;22.256;2022-08-23T02:10:15;8.52;;;3.92;;
57225;SDS011;43082;43.568;22.256;2022-08-23T02:12:41;13.05;;;4.38;;
57225;SDS011;43082;43.568;22.256;2022-08-23T02:15:06;7.00;;;4.60;;
57225;SDS011;43082;43.568;22.256;2022-08-23T02:17:32;8.48;;;4.43;;
57225;SDS011;43082;43.568;22.256;2022-08-23T02:19:58;11.40;;;4.80;;
57225;SDS011;43082;43.568;22.256;2022-08-23T02:22:23;8.38;;;4.38;;
57225;SDS011;43082;43.568;22.256;2022-08-23T02:24:49;9.80;;;4.50;;
57225;SDS011;43082;43.568;22.256;2022-08-23T02:27:15;7.93;;;3.97;;
57225;SDS011;43082;43.568;22.256;2022-08-23T02:29:44;8.05;;;3.70;;
57225;SDS011;43082;43.568;22.256;2022-08-23T02:32:11;9.43;;;3.92;;
57225;SDS011;43082;43.568;22.256;2022-08-23T02:34:38;12.93;;;3.92;;
57225;SDS011;43082;43.568;22.256;2022-08-23T02:37:05;13.65;;;4.22;;
57225;SDS011;43082;43.568;22.256;2022-08-23T02:39:31;8.60;;;3.97;;
57225;SDS011;43082;43.568;22.256;2022-08-23T02:41:57;8.48;;;4.80;;
57225;SDS011;43082;43.568;22.256;2022-08-23T02:44:22;9.38;;;4.38;;
57225;SDS011;43082;43.568;22.256;2022-08-23T02:46:48;9.02;;;4.05;;
57225;SDS011;43082;43.568;22.256;2022-08-23T02:49:14;9.27;;;4.13;;
57225;SDS011;43082;43.568;22.256;2022-08-23T02:51:40;8.38;;;4.10;;
57225;SDS011;43082;43.568;22.256;2022-08-23T02:54:06;7.50;;;4.05;;
57225;SDS011;43082;43.568;22.256;2022-08-23T02:56:32;15.05;;;3.90;;
57225;SDS011;43082;43.568;22.256;2022-08-23T02:58:58;10.43;;;4.88;;
57225;SDS011;43082;43.568;22.256;2022-08-23T03:01:25;9.07;;;3.92;;
57225;SDS011;43082;43.568;22.256;2022-08-23T03:06:24;8.82;;;4.50;;
57225;SDS011;43082;43.568;22.256;2022-08-23T03:08:51;8.18;;;4.25;;
57225;SDS011;43082;43.568;22.256;2022-08-23T03:11:18;7.80;;;4.00;;
57225;SDS011;43082;43.568;22.256;2022-08-23T03:13:47;8.52;;;3.65;;
57225;SDS011;43082;43.568;22.256;2022-08-23T03:16:14;9.13;;;4.20;;
57225;SDS011;43082;43.568;22.256;2022-08-23T03:18:40;11.02;;;4.18;;
57225;SDS011;43082;43.568;22.256;2022-08-23T03:21:06;13.63;;;4.30;;
57225;SDS011;43082;43.568;22.256;2022-08-23T03:23:32;11.15;;;4.28;;
57225;SDS011;43082;43.568;22.256;2022-08-23T03:25:59;9.10;;;3.97;;
57225;SDS011;43082;43.568;22.256;2022-08-23T03:28:25;10.13;;;3.80;;
57225;SDS011;43082;43.568;22.256;2022-08-23T03:30:51;9.25;;;3.58;;
57225;SDS011;43082;43.568;22.256;2022-08-23T03:33:17;8.25;;;3.92;;
57225;SDS011;43082;43.568;22.256;2022-08-23T03:35:43;11.02;;;3.70;;
57225;SDS011;43082;43.568;22.256;2022-08-23T03:38:09;7.15;;;3.80;;
57225;SDS011;43082;43.568;22.256;2022-08-23T03:40:34;8.60;;;4.13;;
57225;SDS011;43082;43.568;22.256;2022-08-23T03:43:00;8.85;;;4.20;;
57225;SDS011;43082;43.568;22.256;2022-08-23T03:45:26;10.00;;;4.68;;
57225;SDS011;43082;43.568;22.256;2022-08-23T03:47:52;9.52;;;3.90;;
57225;SDS011;43082;43.568;22.256;2022-08-23T03:50:18;9.70;;;4.45;;
57225;SDS011;43082;43.568;22.256;2022-08-23T03:52:44;9.85;;;4.50;;
57225;SDS011;43082;43.568;22.256;2022-08-23T03:55:11;11.55;;;5.22;;
57225;SDS011;43082;43.568;22.256;2022-08-23T03:57:36;18.00;;;10.00;;
57225;SDS011;43082;43.568;22.256;2022-08-23T04:00:03;14.57;;;5.45;;
57225;SDS011;43082;43.568;22.256;2022-08-23T04:02:30;15.13;;;5.53;;
57225;SDS011;43082;43.568;22.256;2022-08-23T04:04:57;11.55;;;4.30;;
57225;SDS011;43082;43.568;22.256;2022-08-23T04:07:22;9.73;;;4.43;;
57225;SDS011;43082;43.568;22.256;2022-08-23T04:09:48;9.50;;;4.30;;
57225;SDS011;43082;43.568;22.256;2022-08-23T04:12:13;9.35;;;5.00;;
57225;SDS011;43082;43.568;22.256;2022-08-23T04:14:39;13.18;;;6.35;;
57225;SDS011;43082;43.568;22.256;2022-08-23T04:17:04;10.68;;;5.32;;
57225;SDS011;43082;43.568;22.256;2022-08-23T04:19:30;9.95;;;5.00;;
57225;SDS011;43082;43.568;22.256;2022-08-23T04:21:56;11.77;;;4.55;;
57225;SDS011;43082;43.568;22.256;2022-08-23T04:24:21;10.02;;;4.28;;
57225;SDS011;43082;43.568;22.256;2022-08-23T04:26:47;12.25;;;5.00;;
57225;SDS011;43082;43.568;22.256;2022-08-23T04:29:13;12.05;;;6.60;;
57225;SDS011;43082;43.568;22.256;2022-08-23T04:31:41;14.57;;;5.82;;
57225;SDS011;43082;43.568;22.256;2022-08-23T04:34:07;8.85;;;5.15;;
57225;SDS011;43082;43.568;22.256;2022-08-23T04:36:33;13.43;;;5.70;;
57225;SDS011;43082;43.568;22.256;2022-08-23T04:39:01;10.07;;;5.25;;
57225;SDS011;43082;43.568;22.256;2022-08-23T04:41:27;15.70;;;8.15;;
57225;SDS011;43082;43.568;22.256;2022-08-23T04:44:11;13.65;;;7.38;;
57225;SDS011;43082;43.568;22.256;2022-08-23T04:46:38;8.23;;;4.53;;
57225;SDS011;43082;43.568;22.256;2022-08-23T04:49:03;11.43;;;5.43;;
57225;SDS011;43082;43.568;22.256;2022-08-23T04:51:29;11.43;;;5.93;;
57225;SDS011;43082;43.568;22.256;2022-08-23T04:53:54;14.38;;;5.82;;
57225;SDS011;43082;43.568;22.256;2022-08-23T04:56:20;13.02;;;6.60;;
57225;SDS011;43082;43.568;22.256;2022-08-23T04:58:47;10.60;;;6.05;;
57225;SDS011;43082;43.568;22.256;2022-08-23T05:01:13;11.15;;;5.60;;
57225;SDS011;43082;43.568;22.256;2022-08-23T05:03:40;9.73;;;5.80;;
57225;SDS011;43082;43.568;22.256;2022-08-23T05:06:05;12.02;;;5.38;;
57225;SDS011;43082;43.568;22.256;2022-08-23T05:08:31;9.57;;;5.68;;
57225;SDS011;43082;43.568;22.256;2022-08-23T05:11:01;14.13;;;7.05;;
57225;SDS011;43082;43.568;22.256;2022-08-23T05:13:27;15.43;;;7.78;;
57225;SDS011;43082;43.568;22.256;2022-08-23T05:15:54;15.00;;;7.30;;
57225;SDS011;43082;43.568;22.256;2022-08-23T05:18:20;14.98;;;9.05;;
57225;SDS011;43082;43.568;22.256;2022-08-23T05:20:46;14.77;;;8.50;;
57225;SDS011;43082;43.568;22.256;2022-08-23T05:23:11;11.18;;;7.07;;
57225;SDS011;43082;43.568;22.256;2022-08-23T05:25:37;11.88;;;7.35;;
57225;SDS011;43082;43.568;22.256;2022-08-23T05:28:15;10.77;;;7.28;;
57225;SDS011;43082;43.568;22.256;2022-08-23T05:30:41;10.73;;;7.00;;
57225;SDS011;43082;43.568;22.256;2022-08-23T05:33:07;12.98;;;7.07;;
57225;SDS011;43082;43.568;22.256;2022-08-23T05:35:32;15.52;;;7.72;;
57225;SDS011;43082;43.568;22.256;2022-08-23T05:37:58;13.48;;;9.05;;
57225;SDS011;43082;43.568;22.256;2022-08-23T05:40:24;14.40;;;8.35;;
57225;SDS011;43082;43.568;22.256;2022-08-23T05:42:50;12.38;;;8.43;;
57225;SDS011;43082;43.568;22.256;2022-08-23T05:45:16;11.95;;;8.40;;
57225;SDS011;43082;43.568;22.256;2022-08-23T05:47:41;11.77;;;8.18;;
57225;SDS011;43082;43.568;22.256;2022-08-23T05:50:07;14.10;;;8.35;;
57225;SDS011;43082;43.568;22.256;2022-08-23T05:52:33;15.25;;;8.98;;
57225;SDS011;43082;43.568;22.256;2022-08-23T05:54:58;13.35;;;8.18;;
57225;SDS011;43082;43.568;22.256;2022-08-23T05:57:24;15.15;;;11.20;;
57225;SDS011;43082;43.568;22.256;2022-08-23T05:59:49;13.45;;;8.18;;
57225;SDS011;43082;43.568;22.256;2022-08-23T06:02:15;13.85;;;8.55;;
57225;SDS011;43082;43.568;22.256;2022-08-23T06:04:40;11.70;;;7.22;;
57225;SDS011;43082;43.568;22.256;2022-08-23T06:07:06;13.57;;;9.52;;
57225;SDS011;43082;43.568;22.256;2022-08-23T06:09:31;15.43;;;9.57;;
57225;SDS011;43082;43.568;22.256;2022-08-23T06:11:57;11.30;;;7.00;;
57225;SDS011;43082;43.568;22.256;2022-08-23T06:14:23;14.82;;;9.25;;
57225;SDS011;43082;43.568;22.256;2022-08-23T06:16:49;11.35;;;7.65;;
57225;SDS011;43082;43.568;22.256;2022-08-23T06:19:15;14.50;;;9.73;;
57225;SDS011;43082;43.568;22.256;2022-08-23T06:21:41;17.40;;;7.40;;
57225;SDS011;43082;43.568;22.256;2022-08-23T06:24:07;11.95;;;7.40;;
57225;SDS011;43082;43.568;22.256;2022-08-23T06:26:35;11.85;;;8.10;;
57225;SDS011;43082;43.568;22.256;2022-08-23T06:29:04;14.98;;;8.55;;
57225;SDS011;43082;43.568;22.256;2022-08-23T06:31:31;12.25;;;8.23;;
57225;SDS011;43082;43.568;22.256;2022-08-23T06:36:50;10.88;;;8.38;;
57225;SDS011;43082;43.568;22.256;2022-08-23T06:39:18;11.70;;;7.80;;
57225;SDS011;43082;43.568;22.256;2022-08-23T06:41:45;14.38;;;8.20;;
57225;SDS011;43082;43.568;22.256;2022-08-23T06:44:12;15.68;;;10.57;;
57225;SDS011;43082;43.568;22.256;2022-08-23T06:46:39;13.10;;;9.68;;
57225;SDS011;43082;43.568;22.256;2022-08-23T06:49:05;14.32;;;9.70;;
57225;SDS011;43082;43.568;22.256;2022-08-23T06:51:42;12.73;;;7.65;;
57225;SDS011;43082;43.568;22.256;2022-08-23T06:54:10;11.60;;;7.35;;
57225;SDS011;43082;43.568;22.256;2022-08-23T06:56:38;12.82;;;8.77;;
57225;SDS011;43082;43.568;22.256;2022-08-23T06:59:05;18.02;;;12.85;;
57225;SDS011;43082;43.568;22.256;2022-08-23T07:04:10;7.35;;;4.85;;
57225;SDS011;43082;43.568;22.256;2022-08-23T07:06:37;10.48;;;5.00;;
57225;SDS011;43082;43.568;22.256;2022-08-23T07:09:03;10.05;;;4.43;;
57225;SDS011;43082;43.568;22.256;2022-08-23T07:11:29;8.50;;;4.78;;
57225;SDS011;43082;43.568;22.256;2022-08-23T07:14:00;8.05;;;4.63;;
57225;SDS011;43082;43.568;22.256;2022-08-23T07:16:37;7.82;;;4.80;;
57225;SDS011;43082;43.568;22.256;2022-08-23T07:19:05;7.95;;;4.60;;
57225;SDS011;43082;43.568;22.256;2022-08-23T07:21:30;8.00;;;4.05;;
57225;SDS011;43082;43.568;22.256;2022-08-23T07:23:56;7.60;;;4.90;;
57225;SDS011;43082;43.568;22.256;2022-08-23T07:26:22;9.70;;;4.53;;
57225;SDS011;43082;43.568;22.256;2022-08-23T07:28:48;9.10;;;4.63;;
57225;SDS011;43082;43.568;22.256;2022-08-23T07:31:19;7.72;;;4.63;;
57225;SDS011;43082;43.568;22.256;2022-08-23T07:33:44;8.65;;;4.88;;
57225;SDS011;43082;43.568;22.256;2022-08-23T07:36:14;8.77;;;4.70;;
57225;SDS011;43082;43.568;22.256;2022-08-23T07:38:44;7.28;;;4.55;;
57225;SDS011;43082;43.568;22.256;2022-08-23T07:41:10;9.68;;;4.97;;
57225;SDS011;43082;43.568;22.256;2022-08-23T07:43:37;9.32;;;5.70;;
57225;SDS011;43082;43.568;22.256;2022-08-23T07:46:03;10.38;;;4.85;;
57225;SDS011;43082;43.568;22.256;2022-08-23T07:48:29;26.02;;;18.38;;
57225;SDS011;43082;43.568;22.256;2022-08-23T07:50:56;11.45;;;5.70;;
57225;SDS011;43082;43.568;22.256;2022-08-23T07:53:23;8.07;;;4.45;;
57225;SDS011;43082;43.568;22.256;2022-08-23T07:55:49;8.02;;;4.03;;
57225;SDS011;43082;43.568;22.256;2022-08-23T07:58:16;7.38;;;4.57;;
57225;SDS011;43082;43.568;22.256;2022-08-23T08:00:42;10.20;;;5.93;;
57225;SDS011;43082;43.568;22.256;2022-08-23T08:03:10;7.68;;;4.90;;
57225;SDS011;43082;43.568;22.256;2022-08-23T08:05:37;9.68;;;5.72;;
57225;SDS011;43082;43.568;22.256;2022-08-23T08:08:03;11.23;;;7.65;;
57225;SDS011;43082;43.568;22.256;2022-08-23T08:10:28;14.05;;;10.23;;
57225;SDS011;43082;43.568;22.256;2022-08-23T08:12:54;14.32;;;9.55;;
57225;SDS011;43082;43.568;22.256;2022-08-23T08:15:19;13.75;;;8.55;;
57225;SDS011;43082;43.568;22.256;2022-08-23T08:17:46;13.32;;;6.70;;
57225;SDS011;43082;43.568;22.256;2022-08-23T08:20:12;11.80;;;8.25;;
57225;SDS011;43082;43.568;22.256;2022-08-23T08:22:39;11.73;;;8.82;;
57225;SDS011;43082;43.568;22.256;2022-08-23T08:25:05;14.00;;;10.57;;
57225;SDS011;43082;43.568;22.256;2022-08-23T08:27:32;14.77;;;9.85;;
57225;SDS011;43082;43.568;22.256;2022-08-23T08:29:57;14.15;;;9.68;;
57225;SDS011;43082;43.568;22.256;2022-08-23T08:32:23;13.55;;;9.60;;
57225;SDS011;43082;43.568;22.256;2022-08-23T08:34:48;16.83;;;10.38;;
57225;SDS011;43082;43.568;22.256;2022-08-23T08:37:14;13.52;;;10.20;;
57225;SDS011;43082;43.568;22.256;2022-08-23T08:39:39;15.32;;;11.50;;
57225;SDS011;43082;43.568;22.256;2022-08-23T08:45:21;12.95;;;9.20;;
57225;SDS011;43082;43.568;22.256;2022-08-23T08:50:38;14.77;;;9.07;;
57225;SDS011;43082;43.568;22.256;2022-08-23T08:53:07;12.88;;;9.20;;
57225;SDS011;43082;43.568;22.256;2022-08-23T08:55:38;11.35;;;8.57;;
57225;SDS011;43082;43.568;22.256;2022-08-23T09:01:16;11.52;;;8.45;;
57225;SDS011;43082;43.568;22.256;2022-08-23T09:03:42;15.65;;;9.73;;
57225;SDS011;43082;43.568;22.256;2022-08-23T09:06:11;16.13;;;9.88;;
57225;SDS011;43082;43.568;22.256;2022-08-23T09:11:30;13.43;;;9.40;;
57225;SDS011;43082;43.568;22.256;2022-08-23T09:17:43;13.50;;;8.95;;
57225;SDS011;43082;43.568;22.256;2022-08-23T09:20:09;12.13;;;8.48;;
57225;SDS011;43082;43.568;22.256;2022-08-23T09:22:45;14.75;;;8.20;;
57225;SDS011;43082;43.568;22.256;2022-08-23T09:25:13;13.15;;;7.55;;
57225;SDS011;43082;43.568;22.256;2022-08-23T09:27:41;11.85;;;8.57;;
57225;SDS011;43082;43.568;22.256;2022-08-23T09:30:08;36.20;;;22.17;;
57225;SDS011;43082;43.568;22.256;2022-08-23T09:32:37;13.77;;;9.60;;
57225;SDS011;43082;43.568;22.256;2022-08-23T09:35:08;15.95;;;9.18;;
57225;SDS011;43082;43.568;22.256;2022-08-23T09:40:19;15.20;;;9.68;;
57225;SDS011;43082;43.568;22.256;2022-08-23T09:45:28;12.82;;;8.93;;
57225;SDS011;43082;43.568;22.256;2022-08-23T09:47:59;14.93;;;9.30;;
57225;SDS011;43082;43.568;22.256;2022-08-23T09:50:26;12.70;;;9.10;;
57225;SDS011;43082;43.568;22.256;2022-08-23T09:53:00;11.07;;;9.07;;
57225;SDS011;43082;43.568;22.256;2022-08-23T09:55:42;10.85;;;8.55;;
57225;SDS011;43082;43.568;22.256;2022-08-23T09:58:17;10.70;;;7.47;;
57225;SDS011;43082;43.568;22.256;2022-08-23T10:01:12;13.60;;;7.90;;
57225;SDS011;43082;43.568;22.256;2022-08-23T10:03:39;10.75;;;7.55;;
57225;SDS011;43082;43.568;22.256;2022-08-23T10:06:06;12.35;;;8.30;;
57225;SDS011;43082;43.568;22.256;2022-08-23T10:08:37;11.77;;;7.70;;
57225;SDS011;43082;43.568;22.256;2022-08-23T10:11:16;11.45;;;8.30;;
57225;SDS011;43082;43.568;22.256;2022-08-23T10:13:42;16.90;;;13.18;;
57225;SDS011;43082;43.568;22.256;2022-08-23T10:16:18;13.00;;;10.90;;
57225;SDS011;43082;43.568;22.256;2022-08-23T10:37:54;11.23;;;8.38;;
57225;SDS011;43082;43.568;22.256;2022-08-23T10:40:27;11.05;;;7.72;;
57225;SDS011;43082;43.568;22.256;2022-08-23T10:43:00;12.10;;;8.00;;
57225;SDS011;43082;43.568;22.256;2022-08-23T10:45:36;9.82;;;6.97;;
57225;SDS011;43082;43.568;22.256;2022-08-23T10:50:42;12.40;;;7.05;;
57225;SDS011;43082;43.568;22.256;2022-08-23T10:53:16;8.82;;;5.75;;
57225;SDS011;43082;43.568;22.256;2022-08-23T10:55:45;10.10;;;6.75;;
57225;SDS011;43082;43.568;22.256;2022-08-23T10:58:28;10.97;;;6.90;;
57225;SDS011;43082;43.568;22.256;2022-08-23T11:01:15;8.23;;;5.60;;
57225;SDS011;43082;43.568;22.256;2022-08-23T11:03:46;14.20;;;9.25;;
57225;SDS011;43082;43.568;22.256;2022-08-23T11:06:39;10.23;;;6.22;;
57225;SDS011;43082;43.568;22.256;2022-08-23T11:14:10;11.55;;;7.85;;
57225;SDS011;43082;43.568;22.256;2022-08-23T11:16:38;8.15;;;5.53;;
57225;SDS011;43082;43.568;22.256;2022-08-23T11:19:11;9.82;;;6.22;;
57225;SDS011;43082;43.568;22.256;2022-08-23T11:31:48;9.15;;;5.70;;
57225;SDS011;43082;43.568;22.256;2022-08-23T11:34:42;9.35;;;5.80;;
57225;SDS011;43082;43.568;22.256;2022-08-23T11:42:22;8.63;;;6.10;;
57225;SDS011;43082;43.568;22.256;2022-08-23T11:45:46;9.05;;;6.25;;
57225;SDS011;43082;43.568;22.256;2022-08-23T11:48:10;8.52;;;5.70;;
57225;SDS011;43082;43.568;22.256;2022-08-23T11:53:33;9.25;;;5.82;;
57225;SDS011;43082;43.568;22.256;2022-08-23T11:56:25;9.30;;;6.10;;
57225;SDS011;43082;43.568;22.256;2022-08-23T12:01:45;9.60;;;6.13;;
57225;SDS011;43082;43.568;22.256;2022-08-23T12:04:33;9.63;;;6.97;;
57225;SDS011;43082;43.568;22.256;2022-08-23T12:07:02;12.07;;;6.95;;
57225;SDS011;43082;43.568;22.256;2022-08-23T12:12:10;10.40;;;6.63;;
57225;SDS011;43082;43.568;22.256;2022-08-23T12:19:41;9.25;;;6.00;;
57225;SDS011;43082;43.568;22.256;2022-08-23T12:22:18;8.90;;;5.80;;
57225;SDS011;43082;43.568;22.256;2022-08-23T12:24:54;10.70;;;5.93;;
57225;SDS011;43082;43.568;22.256;2022-08-23T12:27:41;9.18;;;6.65;;
57225;SDS011;43082;43.568;22.256;2022-08-23T12:32:56;10.90;;;5.63;;
57225;SDS011;43082;43.568;22.256;2022-08-23T12:40:50;7.60;;;5.10;;
57225;SDS011;43082;43.568;22.256;2022-08-23T12:43:18;7.90;;;5.22;;
57225;SDS011;43082;43.568;22.256;2022-08-23T12:45:47;9.02;;;5.82;;
57225;SDS011;43082;43.568;22.256;2022-08-23T12:48:18;10.60;;;6.25;;
57225;SDS011;43082;43.568;22.256;2022-08-23T12:50:55;10.35;;;6.30;;
57225;SDS011;43082;43.568;22.256;2022-08-23T12:53:47;9.93;;;6.22;;
57225;SDS011;43082;43.568;22.256;2022-08-23T12:56:17;9.15;;;5.93;;
57225;SDS011;43082;43.568;22.256;2022-08-23T12:58:47;10.27;;;6.20;;
57225;SDS011;43082;43.568;22.256;2022-08-23T13:03:56;9.70;;;6.93;;
57225;SDS011;43082;43.568;22.256;2022-08-23T13:06:25;10.02;;;6.40;;
57225;SDS011;43082;43.568;22.256;2022-08-23T13:08:57;10.95;;;6.50;;
57225;SDS011;43082;43.568;22.256;2022-08-23T13:11:28;11.23;;;6.45;;
57225;SDS011;43082;43.568;22.256;2022-08-23T13:13:56;9.05;;;6.63;;
57225;SDS011;43082;43.568;22.256;2022-08-23T13:19:16;9.25;;;6.22;;
57225;SDS011;43082;43.568;22.256;2022-08-23T13:24:43;9.10;;;6.25;;
57225;SDS011;43082;43.568;22.256;2022-08-23T13:32:37;10.25;;;6.50;;
57225;SDS011;43082;43.568;22.256;2022-08-23T13:37:54;9.35;;;6.10;;
57225;SDS011;43082;43.568;22.256;2022-08-23T13:40:27;9.10;;;6.10;;
57225;SDS011;43082;43.568;22.256;2022-08-23T13:43:03;9.82;;;6.45;;
57225;SDS011;43082;43.568;22.256;2022-08-23T13:45:32;9.05;;;6.82;;
57225;SDS011;43082;43.568;22.256;2022-08-23T13:50:42;10.02;;;6.88;;
57225;SDS011;43082;43.568;22.256;2022-08-23T13:53:09;14.18;;;9.48;;
57225;SDS011;43082;43.568;22.256;2022-08-23T13:55:38;10.15;;;7.38;;
57225;SDS011;43082;43.568;22.256;2022-08-23T13:58:10;10.43;;;6.60;;
57225;SDS011;43082;43.568;22.256;2022-08-23T14:00:38;8.27;;;5.68;;
57225;SDS011;43082;43.568;22.256;2022-08-23T14:03:04;7.00;;;4.47;;
57225;SDS011;43082;43.568;22.256;2022-08-23T14:05:30;7.88;;;5.68;;
57225;SDS011;43082;43.568;22.256;2022-08-23T14:07:55;8.13;;;5.95;;
57225;SDS011;43082;43.568;22.256;2022-08-23T14:10:21;8.27;;;6.30;;
57225;SDS011;43082;43.568;22.256;2022-08-23T14:12:48;11.38;;;6.43;;
57225;SDS011;43082;43.568;22.256;2022-08-23T14:15:14;10.38;;;6.43;;
57225;SDS011;43082;43.568;22.256;2022-08-23T14:17:41;10.98;;;6.45;;
57225;SDS011;43082;43.568;22.256;2022-08-23T14:20:09;10.77;;;6.82;;
57225;SDS011;43082;43.568;22.256;2022-08-23T14:22:36;8.88;;;6.72;;
57225;SDS011;43082;43.568;22.256;2022-08-23T14:25:03;10.75;;;6.65;;
57225;SDS011;43082;43.568;22.256;2022-08-23T14:27:29;9.70;;;7.10;;
57225;SDS011;43082;43.568;22.256;2022-08-23T14:29:54;10.80;;;7.38;;
57225;SDS011;43082;43.568;22.256;2022-08-23T14:32:20;9.18;;;6.70;;
57225;SDS011;43082;43.568;22.256;2022-08-23T14:34:45;12.05;;;7.40;;
57225;SDS011;43082;43.568;22.256;2022-08-23T14:37:11;9.20;;;7.05;;
57225;SDS011;43082;43.568;22.256;2022-08-23T14:39:36;10.75;;;6.70;;
57225;SDS011;43082;43.568;22.256;2022-08-23T14:42:02;8.88;;;6.78;;
57225;SDS011;43082;43.568;22.256;2022-08-23T14:44:28;9.07;;;6.75;;
57225;SDS011;43082;43.568;22.256;2022-08-23T14:46:53;8.75;;;6.78;;
57225;SDS011;43082;43.568;22.256;2022-08-23T14:49:19;7.88;;;5.82;;
57225;SDS011;43082;43.568;22.256;2022-08-23T14:51:45;9.13;;;5.47;;
57225;SDS011;43082;43.568;22.256;2022-08-23T14:54:14;8.73;;;5.30;;
57225;SDS011;43082;43.568;22.256;2022-08-23T14:56:49;8.20;;;5.40;;
57225;SDS011;43082;43.568;22.256;2022-08-23T14:59:14;7.15;;;4.75;;
57225;SDS011;43082;43.568;22.256;2022-08-23T15:01:40;6.63;;;4.25;;
57225;SDS011;43082;43.568;22.256;2022-08-23T15:04:06;7.30;;;4.60;;
57225;SDS011;43082;43.568;22.256;2022-08-23T15:06:31;7.55;;;4.60;;
57225;SDS011;43082;43.568;22.256;2022-08-23T15:08:57;6.88;;;4.25;;
57225;SDS011;43082;43.568;22.256;2022-08-23T15:11:22;8.20;;;4.80;;
57225;SDS011;43082;43.568;22.256;2022-08-23T15:13:48;6.65;;;4.68;;
57225;SDS011;43082;43.568;22.256;2022-08-23T15:16:14;8.27;;;5.10;;
57225;SDS011;43082;43.568;22.256;2022-08-23T15:18:43;9.80;;;5.20;;
57225;SDS011;43082;43.568;22.256;2022-08-23T15:21:10;7.28;;;4.78;;
57225;SDS011;43082;43.568;22.256;2022-08-23T15:23:36;7.47;;;5.20;;
57225;SDS011;43082;43.568;22.256;2022-08-23T15:26:01;9.55;;;5.63;;
57225;SDS011;43082;43.568;22.256;2022-08-23T15:28:27;8.95;;;5.70;;
57225;SDS011;43082;43.568;22.256;2022-08-23T15:30:53;7.97;;;5.63;;
57225;SDS011;43082;43.568;22.256;2022-08-23T15:33:19;8.73;;;5.63;;
57225;SDS011;43082;43.568;22.256;2022-08-23T15:35:48;7.95;;;5.57;;
57225;SDS011;43082;43.568;22.256;2022-08-23T15:38:18;8.95;;;5.57;;
57225;SDS011;43082;43.568;22.256;2022-08-23T15:40:45;8.45;;;5.75;;
57225;SDS011;43082;43.568;22.256;2022-08-23T15:43:11;10.45;;;5.93;;
57225;SDS011;43082;43.568;22.256;2022-08-23T15:45:37;8.15;;;5.90;;
57225;SDS011;43082;43.568;22.256;2022-08-23T15:48:05;10.02;;;6.40;;
57225;SDS011;43082;43.568;22.256;2022-08-23T15:50:36;10.65;;;6.38;;
57225;SDS011;43082;43.568;22.256;2022-08-23T15:53:01;9.18;;;6.55;;
57225;SDS011;43082;43.568;22.256;2022-08-23T15:55:28;9.70;;;6.20;;
57225;SDS011;43082;43.568;22.256;2022-08-23T15:57:55;10.23;;;6.60;;
57225;SDS011;43082;43.568;22.256;2022-08-23T16:00:22;9.25;;;6.20;;
57225;SDS011;43082;43.568;22.256;2022-08-23T16:02:49;9.93;;;6.68;;
57225;SDS011;43082;43.568;22.256;2022-08-23T16:05:15;9.82;;;6.97;;
57225;SDS011;43082;43.568;22.256;2022-08-23T16:07:41;11.38;;;6.60;;
57225;SDS011;43082;43.568;22.256;2022-08-23T16:10:07;9.90;;;6.80;;
57225;SDS011;43082;43.568;22.256;2022-08-23T16:12:35;10.40;;;6.32;;
57225;SDS011;43082;43.568;22.256;2022-08-23T16:15:00;9.48;;;6.85;;
57225;SDS011;43082;43.568;22.256;2022-08-23T16:17:26;11.38;;;7.28;;
57225;SDS011;43082;43.568;22.256;2022-08-23T16:19:51;11.02;;;6.93;;
57225;SDS011;43082;43.568;22.256;2022-08-23T16:22:18;9.25;;;7.03;;
57225;SDS011;43082;43.568;22.256;2022-08-23T16:24:43;12.48;;;6.88;;
57225;SDS011;43082;43.568;22.256;2022-08-23T16:27:09;8.70;;;6.70;;